createdAt,value
2023-01-20T00:01:29.770Z,4.35
2023-01-20T00:03:57.634Z,4.40
2023-01-20T00:06:30.406Z,5.07
2023-01-20T00:08:58.986Z,4.68
2023-01-20T00:11:26.891Z,3.60
2023-01-20T00:13:55.848Z,3.20
2023-01-20T00:16:23.815Z,3.50
2023-01-20T00:18:51.416Z,4.35
2023-01-20T00:21:19.036Z,3.58
2023-01-20T00:23:46.920Z,3.83
2023-01-20T00:26:16.430Z,3.60
2023-01-20T00:28:44.417Z,2.67
2023-01-20T00:31:19.676Z,2.45
2023-01-20T00:33:47.873Z,2.97
2023-01-20T00:36:16.145Z,2.53
2023-01-20T00:38:43.590Z,2.38
2023-01-20T00:41:10.991Z,2.28
2023-01-20T00:43:38.580Z,2.10
2023-01-20T00:46:06.783Z,2.38
2023-01-20T00:48:34.438Z,2.40
2023-01-20T00:51:01.889Z,2.10
2023-01-20T00:53:29.718Z,1.80
2023-01-20T00:55:57.233Z,3.13
2023-01-20T00:58:24.914Z,2.33
2023-01-20T01:00:53.518Z,2.47
2023-01-20T01:03:21.182Z,2.40
2023-01-20T01:05:48.648Z,2.67
2023-01-20T01:08:16.074Z,2.55
2023-01-20T01:10:43.777Z,2.30
2023-01-20T01:13:11.374Z,2.20
2023-01-20T01:15:38.839Z,2.13
2023-01-20T01:18:06.270Z,2.22
2023-01-20T01:20:33.732Z,2.50
2023-01-20T01:23:01.112Z,2.50
2023-01-20T01:25:28.512Z,2.90
2023-01-20T01:27:55.966Z,2.65
2023-01-20T01:30:23.581Z,2.90
2023-01-20T01:32:50.958Z,2.30
2023-01-20T01:35:18.399Z,2.03
2023-01-20T01:37:45.799Z,2.10
2023-01-20T01:40:13.367Z,2.22
2023-01-20T01:42:42.861Z,1.85
2023-01-20T01:45:13.968Z,1.50
2023-01-20T01:47:47.263Z,2.13
2023-01-20T01:50:17.099Z,1.95
2023-01-20T01:52:49.443Z,1.70
2023-01-20T01:55:18.997Z,1.70
2023-01-20T01:57:46.913Z,2.10
2023-01-20T02:00:14.500Z,1.70
2023-01-20T02:02:43.832Z,2.00
2023-01-20T02:05:12.697Z,2.28
2023-01-20T02:07:40.446Z,1.88
2023-01-20T02:10:08.040Z,1.80
2023-01-20T02:12:35.511Z,1.80
2023-01-20T02:15:03.561Z,2.13
2023-01-20T02:17:33.528Z,1.80
2023-01-20T02:20:03.960Z,1.88
2023-01-20T02:22:44.234Z,1.80
2023-01-20T02:25:30.160Z,2.20
2023-01-20T02:28:06.499Z,1.67
2023-01-20T02:30:54.305Z,2.20
2023-01-20T02:33:30.992Z,2.05
2023-01-20T02:35:58.453Z,2.10
2023-01-20T02:38:34.964Z,1.80
2023-01-20T02:41:11.465Z,2.20
2023-01-20T02:43:51.751Z,2.05
2023-01-20T02:46:24.121Z,2.15
2023-01-20T02:48:54.546Z,2.20
2023-01-20T02:51:24.523Z,1.90
2023-01-20T02:53:54.380Z,2.50
2023-01-20T02:56:23.908Z,2.20
2023-01-20T02:58:53.175Z,2.28
2023-01-20T03:01:32.363Z,1.80
2023-01-20T03:04:01.068Z,2.30
2023-01-20T03:06:31.010Z,2.17
2023-01-20T03:09:00.114Z,2.40
2023-01-20T03:11:29.316Z,1.85
2023-01-20T03:14:02.544Z,2.10
2023-01-20T03:16:30.595Z,2.10
2023-01-20T03:18:58.003Z,2.17
2023-01-20T03:21:25.574Z,2.70
2023-01-20T03:23:54.820Z,2.42
2023-01-20T03:26:23.846Z,1.95
2023-01-20T03:28:51.540Z,2.00
2023-01-20T03:31:21.640Z,2.17
2023-01-20T03:33:49.948Z,2.28
2023-01-20T03:36:17.898Z,2.50
2023-01-20T03:38:46.267Z,2.33
2023-01-20T03:41:18.281Z,2.35
2023-01-20T03:43:50.267Z,2.00
2023-01-20T03:46:25.856Z,2.13
2023-01-20T03:48:59.173Z,1.80
2023-01-20T03:51:31.372Z,1.85
2023-01-20T03:54:08.601Z,1.90
2023-01-20T03:56:43.324Z,2.10
2023-01-20T03:59:13.065Z,2.00
2023-01-20T04:01:43.062Z,2.03
2023-01-20T04:04:12.328Z,2.25
2023-01-20T04:06:41.441Z,2.35
2023-01-20T04:09:10.444Z,2.35
2023-01-20T04:11:37.860Z,2.25
2023-01-20T04:14:05.800Z,1.90
2023-01-20T04:16:33.413Z,2.10
2023-01-20T04:19:00.934Z,2.10
2023-01-20T04:21:40.647Z,2.38
2023-01-20T04:24:12.492Z,2.60
2023-01-20T04:26:39.984Z,5.43
2023-01-20T04:29:13.005Z,5.20
2023-01-20T04:31:40.929Z,4.72
2023-01-20T04:34:08.466Z,4.78
2023-01-20T04:36:36.004Z,4.68
2023-01-20T04:39:03.426Z,4.70
2023-01-20T04:41:30.999Z,4.07
2023-01-20T04:43:58.377Z,3.83
2023-01-20T04:46:25.872Z,3.75
2023-01-20T04:48:53.607Z,4.32
2023-01-20T04:51:21.279Z,5.18
2023-01-20T04:53:48.707Z,4.78
2023-01-20T04:56:16.400Z,7.22
2023-01-20T04:58:44.093Z,7.15
2023-01-20T05:01:11.588Z,7.60
2023-01-20T05:03:39.105Z,6.85
2023-01-20T05:06:06.782Z,4.32
2023-01-20T05:08:34.271Z,3.45
2023-01-20T05:11:01.685Z,3.28
2023-01-20T05:13:29.782Z,3.20
2023-01-20T05:15:57.436Z,2.95
2023-01-20T05:18:24.925Z,3.17
2023-01-20T05:20:52.298Z,3.97
2023-01-20T05:23:19.756Z,3.60
2023-01-20T05:25:53.885Z,3.88
2023-01-20T05:28:21.451Z,3.50
2023-01-20T05:30:49.201Z,3.50
2023-01-20T05:33:16.687Z,3.50
2023-01-20T05:35:44.109Z,3.75
2023-01-20T05:38:11.890Z,3.83
2023-01-20T05:40:39.285Z,3.38
2023-01-20T05:43:06.791Z,4.53
2023-01-20T05:45:34.204Z,7.35
2023-01-20T05:48:01.834Z,10.75
2023-01-20T05:50:29.895Z,8.70
2023-01-20T05:52:57.359Z,11.40
2023-01-20T05:55:24.775Z,12.65
2023-01-20T05:57:52.408Z,12.88
2023-01-20T06:00:20.163Z,12.55
2023-01-20T06:02:47.639Z,13.63
2023-01-20T06:05:15.275Z,14.10
2023-01-20T06:07:43.523Z,12.35
2023-01-20T06:10:11.344Z,11.43
2023-01-20T06:12:38.845Z,8.60
2023-01-20T06:15:06.709Z,9.25
2023-01-20T06:17:34.168Z,9.25
2023-01-20T06:20:01.690Z,7.22
2023-01-20T06:22:29.155Z,6.22
2023-01-20T06:24:56.656Z,10.65
2023-01-20T06:27:24.140Z,13.95
2023-01-20T06:29:51.635Z,7.28
2023-01-20T06:32:19.087Z,5.28
2023-01-20T06:34:46.554Z,4.82
2023-01-20T06:37:14.137Z,6.80
2023-01-20T06:39:41.580Z,8.68
2023-01-20T06:42:09.452Z,7.82
2023-01-20T06:44:37.739Z,4.75
2023-01-20T06:47:05.203Z,4.07
2023-01-20T06:49:33.685Z,4.13
2023-01-20T06:52:01.172Z,3.25
2023-01-20T06:54:28.699Z,4.40
2023-01-20T06:56:56.127Z,3.78
2023-01-20T06:59:23.565Z,4.00
2023-01-20T07:01:51.470Z,7.30
2023-01-20T07:04:18.952Z,5.47
2023-01-20T07:06:46.368Z,44.72
2023-01-20T07:09:14.401Z,56.85
2023-01-20T07:11:41.912Z,33.90
2023-01-20T07:14:10.077Z,31.55
2023-01-20T07:16:37.594Z,11.27
2023-01-20T07:19:05.351Z,6.68
2023-01-20T07:21:32.832Z,4.55
2023-01-20T07:24:01.736Z,6.00
2023-01-20T07:26:29.632Z,7.35
2023-01-20T07:28:58.658Z,26.42
2023-01-20T07:31:27.628Z,16.25
2023-01-20T07:33:56.465Z,4.43
2023-01-20T07:36:24.408Z,2.75
2023-01-20T07:38:52.636Z,3.63
2023-01-20T07:41:21.216Z,4.03
2023-01-20T07:43:50.701Z,4.70
2023-01-20T07:46:18.210Z,3.95
2023-01-20T07:48:45.631Z,4.25
2023-01-20T07:51:14.118Z,3.92
2023-01-20T07:53:46.547Z,4.18
2023-01-20T07:56:21.619Z,4.90
2023-01-20T07:58:50.642Z,4.03
2023-01-20T08:01:22.040Z,4.80
2023-01-20T08:03:50.053Z,5.15
2023-01-20T08:06:19.022Z,4.55
2023-01-20T08:08:46.578Z,4.68
2023-01-20T08:11:14.926Z,5.07
2023-01-20T08:13:42.781Z,4.97
2023-01-20T08:16:11.461Z,5.70
2023-01-20T08:18:39.293Z,7.32
2023-01-20T08:21:08.398Z,6.15
2023-01-20T08:23:36.625Z,6.20
2023-01-20T08:26:05.077Z,6.15
2023-01-20T08:28:36.423Z,7.68
2023-01-20T08:31:08.062Z,7.45
2023-01-20T08:33:35.707Z,8.45
2023-01-20T08:36:07.805Z,12.40
2023-01-20T08:38:35.875Z,6.95
2023-01-20T08:41:06.769Z,7.85
2023-01-20T08:43:34.316Z,7.15
2023-01-20T08:46:02.873Z,7.90
2023-01-20T08:48:30.347Z,8.00
2023-01-20T08:50:58.116Z,8.10
2023-01-20T08:53:26.185Z,8.50
2023-01-20T08:56:00.682Z,7.95
2023-01-20T08:58:28.621Z,8.20
2023-01-20T09:00:56.401Z,6.85
2023-01-20T09:03:24.394Z,7.30
2023-01-20T09:05:51.855Z,7.82
2023-01-20T09:08:20.055Z,6.25
2023-01-20T09:10:47.652Z,6.93
2023-01-20T09:13:15.449Z,8.32
2023-01-20T09:15:43.057Z,7.68
2023-01-20T09:18:10.494Z,9.75
2023-01-20T09:20:38.041Z,8.88
2023-01-20T09:23:05.848Z,7.20
2023-01-20T09:25:33.348Z,10.02
2023-01-20T09:28:01.605Z,8.98
2023-01-20T09:30:29.179Z,8.05
2023-01-20T09:33:00.142Z,9.95
2023-01-20T09:35:27.611Z,8.15
2023-01-20T09:38:13.803Z,7.28
2023-01-20T09:41:19.980Z,7.32
2023-01-20T09:43:56.767Z,7.15
2023-01-20T09:46:24.335Z,7.07
2023-01-20T09:49:16.049Z,6.75
2023-01-20T09:52:10.149Z,6.25
2023-01-20T09:54:46.424Z,6.95
2023-01-20T09:57:14.566Z,6.10
2023-01-20T09:59:45.658Z,6.07
2023-01-20T10:02:18.494Z,5.65
2023-01-20T10:04:54.135Z,6.25
2023-01-20T10:07:27.467Z,6.30
2023-01-20T10:09:58.015Z,6.53
2023-01-20T10:12:31.419Z,6.65
2023-01-20T10:15:14.284Z,6.50
2023-01-20T10:17:56.009Z,5.93
2023-01-20T10:20:35.784Z,6.35
2023-01-20T10:23:06.086Z,6.88
2023-01-20T10:25:39.456Z,5.97
2023-01-20T10:28:14.899Z,4.95
2023-01-20T10:30:45.105Z,5.25
2023-01-20T10:33:16.345Z,5.13
2023-01-20T10:35:47.900Z,6.45
2023-01-20T10:38:21.987Z,5.95
2023-01-20T10:40:56.406Z,5.45
2023-01-20T10:43:24.119Z,5.40
2023-01-20T10:46:00.613Z,5.53
2023-01-20T10:48:28.204Z,5.85
2023-01-20T10:50:55.555Z,6.78
2023-01-20T10:53:26.135Z,5.70
2023-01-20T10:56:04.774Z,7.55
2023-01-20T10:58:34.651Z,7.30
2023-01-20T11:01:03.601Z,6.53
2023-01-20T11:03:35.016Z,4.93
2023-01-20T11:06:03.743Z,5.63
2023-01-20T11:08:31.405Z,6.40
2023-01-20T11:11:10.652Z,6.20
2023-01-20T11:13:38.155Z,7.13
2023-01-20T11:16:12.060Z,8.05
2023-01-20T11:18:39.600Z,8.52
2023-01-20T11:21:08.729Z,9.38
2023-01-20T11:23:39.174Z,7.43
2023-01-20T11:26:21.506Z,6.68
2023-01-20T11:28:49.018Z,6.70
2023-01-20T11:31:16.715Z,6.35
2023-01-20T11:33:57.817Z,6.93
2023-01-20T11:36:26.943Z,6.68
2023-01-20T11:38:55.493Z,6.35
2023-01-20T11:41:25.685Z,4.97
2023-01-20T11:43:55.536Z,5.72
2023-01-20T11:46:24.699Z,5.65
2023-01-20T11:49:06.479Z,6.05
2023-01-20T11:51:34.117Z,6.38
2023-01-20T11:54:09.501Z,6.28
2023-01-20T11:56:41.471Z,5.38
2023-01-20T11:59:39.177Z,5.70
2023-01-20T12:02:09.796Z,5.20
2023-01-20T12:04:37.385Z,5.85
2023-01-20T12:07:07.775Z,5.85
2023-01-20T12:09:38.373Z,7.15
2023-01-20T12:12:07.513Z,6.45
2023-01-20T12:14:44.057Z,5.97
2023-01-20T12:17:11.505Z,5.63
2023-01-20T12:19:41.907Z,6.20
2023-01-20T12:22:16.643Z,4.70
2023-01-20T12:25:07.499Z,4.47
2023-01-20T12:27:36.997Z,4.30
2023-01-20T12:30:12.064Z,3.50
2023-01-20T12:35:13.509Z,3.00
2023-01-20T12:37:57.303Z,3.10
2023-01-20T12:40:39.126Z,3.13
2023-01-20T12:43:18.927Z,4.30
2023-01-20T12:45:49.619Z,4.00
2023-01-20T12:48:20.196Z,4.13
2023-01-20T12:50:53.804Z,3.40
2023-01-20T12:53:31.125Z,3.63
2023-01-20T12:56:04.769Z,3.67
2023-01-20T12:58:39.991Z,3.63
2023-01-20T13:01:10.456Z,4.50
2023-01-20T13:03:37.989Z,3.97
2023-01-20T13:06:17.472Z,4.80
2023-01-20T13:09:05.320Z,5.38
2023-01-20T13:11:44.416Z,5.60
2023-01-20T13:14:12.057Z,4.25
2023-01-20T13:16:52.098Z,4.80
2023-01-20T13:19:19.667Z,5.07
2023-01-20T13:21:59.533Z,5.13
2023-01-20T13:24:35.125Z,5.53
2023-01-20T13:27:02.790Z,5.88
2023-01-20T13:29:37.101Z,5.63
2023-01-20T13:32:05.767Z,4.90
2023-01-20T13:34:34.443Z,4.25
2023-01-20T13:37:07.235Z,4.75
2023-01-20T13:39:42.473Z,5.38
2023-01-20T13:42:28.756Z,5.18
2023-01-20T13:45:15.199Z,6.07
2023-01-20T13:47:48.767Z,4.93
2023-01-20T13:50:27.532Z,4.63
2023-01-20T13:53:00.908Z,5.20
2023-01-20T13:55:50.169Z,5.30
2023-01-20T13:58:28.693Z,4.55
2023-01-20T14:00:56.164Z,4.68
2023-01-20T14:03:30.757Z,4.20
2023-01-20T14:06:02.809Z,4.10
2023-01-20T14:08:32.432Z,3.50
2023-01-20T14:11:12.406Z,4.00
2023-01-20T14:13:40.600Z,4.40
2023-01-20T14:16:18.471Z,4.03
2023-01-20T14:18:46.073Z,4.57
2023-01-20T14:21:19.304Z,5.25
2023-01-20T14:23:46.919Z,5.00
2023-01-20T14:26:16.314Z,4.57
2023-01-20T14:28:48.200Z,3.92
2023-01-20T14:31:22.775Z,4.95
2023-01-20T14:33:55.980Z,4.45
2023-01-20T14:36:24.053Z,4.65
2023-01-20T14:38:58.237Z,4.65
2023-01-20T14:41:26.026Z,5.15
2023-01-20T14:43:53.520Z,6.28
2023-01-20T14:46:21.117Z,4.80
2023-01-20T14:48:49.247Z,5.35
2023-01-20T14:51:16.829Z,3.67
2023-01-20T14:53:44.355Z,3.50
2023-01-20T14:56:18.400Z,4.40
2023-01-20T14:58:46.882Z,2.53
2023-01-20T15:01:32.407Z,2.70
2023-01-20T15:06:27.513Z,3.05
2023-01-20T15:09:06.752Z,3.55
2023-01-20T15:11:35.691Z,3.30
2023-01-20T15:14:05.911Z,3.95
2023-01-20T15:16:44.727Z,4.80
2023-01-20T15:19:15.383Z,5.43
2023-01-20T15:21:58.797Z,6.70
2023-01-20T15:24:30.796Z,5.38
2023-01-20T15:27:00.596Z,6.78
2023-01-20T15:29:35.595Z,7.15
2023-01-20T15:32:10.030Z,6.15
2023-01-20T15:34:37.521Z,5.95
2023-01-20T15:37:10.236Z,5.50
2023-01-20T15:39:37.735Z,4.22
2023-01-20T15:42:07.069Z,4.00
2023-01-20T15:44:34.491Z,3.55
2023-01-20T15:47:01.959Z,3.25
2023-01-20T15:49:29.432Z,7.53
2023-01-20T15:51:56.855Z,4.40
2023-01-20T15:54:24.386Z,3.28
2023-01-20T15:56:51.834Z,4.80
2023-01-20T15:59:22.853Z,3.90
2023-01-20T16:01:50.690Z,2.80
2023-01-20T16:04:18.361Z,3.10
2023-01-20T16:06:45.965Z,3.90
2023-01-20T16:09:19.697Z,4.00
2023-01-20T16:11:47.682Z,5.20
2023-01-20T16:14:15.103Z,5.53
2023-01-20T16:16:42.564Z,6.10
2023-01-20T16:19:13.162Z,5.70
2023-01-20T16:21:40.674Z,5.30
2023-01-20T16:24:08.268Z,5.00
2023-01-20T16:26:36.103Z,5.22
2023-01-20T16:29:04.806Z,4.90
2023-01-20T16:31:33.583Z,4.30
2023-01-20T16:34:01.149Z,4.20
2023-01-20T16:36:28.643Z,5.55
2023-01-20T16:38:56.376Z,13.07
2023-01-20T16:41:24.717Z,5.00
2023-01-20T16:43:53.078Z,4.20
2023-01-20T16:46:21.873Z,4.38
2023-01-20T16:48:49.377Z,3.28
2023-01-20T16:51:17.986Z,2.90
2023-01-20T16:53:45.480Z,2.22
2023-01-20T16:56:16.755Z,2.00
2023-01-20T16:58:44.652Z,1.88
2023-01-20T17:01:12.357Z,2.08
2023-01-20T17:03:40.436Z,2.00
2023-01-20T17:06:17.411Z,2.15
2023-01-20T17:08:46.007Z,2.30
2023-01-20T17:11:23.924Z,2.60
2023-01-20T17:13:51.835Z,2.25
2023-01-20T17:16:19.791Z,2.40
2023-01-20T17:18:50.949Z,2.40
2023-01-20T17:21:20.660Z,3.20
2023-01-20T17:23:55.201Z,2.60
2023-01-20T17:26:22.932Z,2.63
2023-01-20T17:28:50.517Z,3.22
2023-01-20T17:31:18.014Z,3.55
2023-01-20T17:33:48.576Z,4.00
2023-01-20T17:36:18.808Z,3.08
2023-01-20T17:38:46.623Z,2.53
2023-01-20T17:41:15.103Z,2.08
2023-01-20T17:43:46.644Z,2.10
2023-01-20T17:46:18.782Z,1.70
2023-01-20T17:48:46.761Z,1.50
2023-01-20T17:51:15.405Z,1.60
2023-01-20T17:53:43.613Z,2.22
2023-01-20T17:56:13.585Z,1.50
2023-01-20T17:58:42.138Z,1.85
2023-01-20T18:01:19.889Z,2.00
2023-01-20T18:03:48.552Z,1.75
2023-01-20T18:06:17.305Z,1.80
2023-01-20T18:08:45.123Z,2.10
2023-01-20T18:11:15.241Z,2.45
2023-01-20T18:13:45.678Z,2.17
2023-01-20T18:16:14.162Z,2.53
2023-01-20T18:18:43.339Z,2.25
2023-01-20T18:21:15.434Z,2.90
2023-01-20T18:23:43.467Z,2.90
2023-01-20T18:26:11.177Z,2.90
2023-01-20T18:28:38.788Z,2.78
2023-01-20T18:31:10.568Z,2.65
2023-01-20T18:33:39.986Z,2.63
2023-01-20T18:36:08.875Z,2.40
2023-01-20T18:38:36.356Z,2.20
2023-01-20T18:41:04.091Z,2.13
2023-01-20T18:43:31.627Z,2.35
2023-01-20T18:46:00.417Z,2.30
2023-01-20T18:48:27.903Z,2.20
2023-01-20T18:51:01.726Z,2.17
2023-01-20T18:53:29.747Z,2.38
2023-01-20T18:56:03.967Z,2.20
2023-01-20T18:58:31.462Z,2.33
2023-01-20T19:01:05.941Z,2.40
2023-01-20T19:03:33.951Z,2.40
2023-01-20T19:06:11.042Z,2.33
2023-01-20T19:08:39.582Z,2.45
2023-01-20T19:11:12.941Z,2.20
2023-01-20T19:13:41.459Z,2.75
2023-01-20T19:16:10.563Z,2.70
2023-01-20T19:18:38.118Z,2.67
2023-01-20T19:21:06.267Z,2.60
2023-01-20T19:23:33.808Z,2.70
2023-01-20T19:26:02.076Z,2.70
2023-01-20T19:28:29.515Z,2.78
2023-01-20T19:30:57.099Z,2.63
2023-01-20T19:33:24.685Z,2.97
2023-01-20T19:35:52.063Z,2.75
2023-01-20T19:38:19.540Z,2.85
2023-01-20T19:40:47.035Z,2.45
2023-01-20T19:43:14.753Z,2.95
2023-01-20T19:45:45.827Z,2.65
2023-01-20T19:48:13.704Z,2.75
2023-01-20T19:50:41.965Z,2.70
2023-01-20T19:53:09.435Z,2.47
2023-01-20T19:55:36.912Z,2.80
2023-01-20T19:58:06.272Z,2.67
2023-01-20T20:00:33.718Z,2.85
2023-01-20T20:03:02.939Z,2.90
2023-01-20T20:05:30.426Z,2.95
2023-01-20T20:07:59.524Z,2.92
2023-01-20T20:10:27.011Z,2.78
2023-01-20T20:12:54.692Z,3.60
2023-01-20T20:15:22.244Z,3.88
2023-01-20T20:17:49.668Z,4.00
2023-01-20T20:20:17.516Z,5.03
2023-01-20T20:22:45.032Z,4.82
2023-01-20T20:25:12.519Z,4.93
2023-01-20T20:27:39.933Z,4.88
2023-01-20T20:30:08.611Z,5.32
2023-01-20T20:32:36.033Z,5.32
2023-01-20T20:35:03.667Z,5.65
2023-01-20T20:37:31.077Z,5.90
2023-01-20T20:39:58.545Z,6.57
2023-01-20T20:42:27.305Z,6.43
2023-01-20T20:44:54.814Z,7.35
2023-01-20T20:47:22.227Z,7.20
2023-01-20T20:49:49.667Z,7.25
2023-01-20T20:52:17.061Z,7.03
2023-01-20T20:54:44.512Z,7.25
2023-01-20T20:57:12.183Z,7.25
2023-01-20T20:59:57.623Z,7.47
2023-01-20T21:02:26.268Z,7.90
2023-01-20T21:04:55.025Z,8.23
2023-01-20T21:07:22.548Z,7.30
2023-01-20T21:09:50.012Z,7.68
2023-01-20T21:12:18.056Z,7.90
2023-01-20T21:14:45.455Z,8.13
2023-01-20T21:17:13.053Z,8.15
2023-01-20T21:19:40.491Z,7.93
2023-01-20T21:22:08.350Z,7.93
2023-01-20T21:24:35.789Z,8.65
2023-01-20T21:27:03.304Z,8.02
2023-01-20T21:29:30.715Z,8.05
2023-01-20T21:31:58.373Z,8.07
2023-01-20T21:34:26.084Z,8.07
2023-01-20T21:36:53.533Z,8.15
2023-01-20T21:39:21.092Z,8.50
2023-01-20T21:41:48.586Z,8.85
2023-01-20T21:44:28.460Z,9.07
2023-01-20T21:47:08.006Z,9.15
2023-01-20T21:49:54.539Z,9.55
2023-01-20T21:52:41.645Z,9.18
2023-01-20T21:55:13.597Z,8.80
2023-01-20T21:57:41.105Z,8.93
2023-01-20T22:00:09.820Z,8.68
2023-01-20T22:02:40.956Z,8.75
2023-01-20T22:05:08.720Z,8.85
2023-01-20T22:07:36.128Z,9.05
2023-01-20T22:10:03.911Z,9.20
2023-01-20T22:12:34.600Z,9.63
2023-01-20T22:15:03.452Z,10.52
2023-01-20T22:17:31.267Z,9.05
2023-01-20T22:19:59.596Z,9.95
2023-01-20T22:22:27.096Z,9.40
2023-01-20T22:24:54.612Z,10.15
2023-01-20T22:27:22.151Z,11.00
2023-01-20T22:29:49.683Z,11.30
2023-01-20T22:32:17.148Z,10.20
2023-01-20T22:34:44.594Z,9.93
2023-01-20T22:37:11.996Z,8.90
2023-01-20T22:39:39.512Z,9.57
2023-01-20T22:42:07.646Z,11.05
2023-01-20T22:44:35.315Z,9.45
2023-01-20T22:47:05.204Z,8.88
2023-01-20T22:49:32.719Z,9.15
2023-01-20T22:52:00.145Z,9.45
2023-01-20T22:54:27.608Z,9.82
2023-01-20T22:56:55.011Z,9.23
2023-01-20T22:59:22.536Z,8.40
2023-01-20T23:01:50.005Z,9.40
2023-01-20T23:04:17.501Z,9.43
2023-01-20T23:06:44.888Z,9.75
2023-01-20T23:09:14.480Z,9.57
2023-01-20T23:11:42.139Z,9.68
2023-01-20T23:14:12.966Z,9.57
2023-01-20T23:16:41.211Z,8.90
2023-01-20T23:19:08.776Z,8.73
2023-01-20T23:21:36.282Z,10.32
2023-01-20T23:24:03.751Z,10.32
2023-01-20T23:26:31.446Z,9.73
2023-01-20T23:28:59.092Z,10.82
2023-01-20T23:31:28.705Z,9.77
2023-01-20T23:33:56.339Z,9.13
2023-01-20T23:36:25.269Z,9.27
2023-01-20T23:38:56.694Z,9.20
2023-01-20T23:41:24.861Z,10.00
2023-01-20T23:43:52.324Z,9.40
2023-01-20T23:46:19.832Z,9.20
2023-01-20T23:48:47.634Z,9.20
2023-01-20T23:51:15.562Z,9.45
2023-01-20T23:53:43.377Z,9.40
2023-01-20T23:56:12.914Z,8.90
2023-01-20T23:58:40.675Z,8.63
